Time,TemperatureF,DewpointF,PressureIn,WindDirection,WindDirectionDegrees,WindSpeedMPH,WindSpeedGustMPH,Humidity,HourlyPrecipIn,Conditions,Clouds,dailyrainin,SoftwareType,DateUTC
2013-06-19 00:01:00,62.3,61.1,29.89,SW,230,0.0,0.0,96,0.00,,,0.00,Wunderground v.1.13,2013-06-19 04:01:00,
2013-06-19 00:06:00,62.5,61.6,29.89,SW,230,0.0,0.0,97,0.00,,,0.00,Wunderground v.1.13,2013-06-19 04:06:00,
2013-06-19 00:11:00,62.6,61.7,29.90,SW,230,0.0,0.0,97,0.00,,,0.00,Wunderground v.1.13,2013-06-19 04:11:00,
2013-06-19 00:16:00,62.6,61.7,29.89,SW,230,0.0,0.0,97,0.00,,,0.00,Wunderground v.1.13,2013-06-19 04:16:00,
2013-06-19 00:21:00,62.6,61.7,29.89,SW,230,0.0,0.0,97,0.00,,,0.00,Wunderground v.1.13,2013-06-19 04:21:00,
2013-06-19 00:26:00,62.5,61.6,29.90,SW,230,0.0,0.0,97,0.00,,,0.00,Wunderground v.1.13,2013-06-19 04:26:00,
2013-06-19 00:31:00,62.5,61.6,29.90,SW,230,0.0,0.0,97,0.00,,,0.00,Wunderground v.1.13,2013-06-19 04:31:00,
2013-06-19 00:36:00,62.4,61.5,29.90,SW,230,0.0,0.0,97,0.00,,,0.00,Wunderground v.1.13,2013-06-19 04:36:00,
2013-06-19 00:41:00,62.4,61.5,29.90,SW,230,0.0,0.0,97,0.00,,,0.00,Wunderground v.1.13,2013-06-19 04:41:00,
2013-06-19 00:46:00,62.4,61.5,29.90,SW,230,0.0,0.0,97,0.00,,,0.00,Wunderground v.1.13,2013-06-19 04:46:00,
2013-06-19 00:51:00,62.4,61.5,29.91,SW,230,0.0,0.0,97,0.00,,,0.00,Wunderground v.1.13,2013-06-19 04:51:00,
2013-06-19 00:56:00,62.4,61.5,29.91,SW,230,0.0,0.0,97,0.00,,,0.00,Wunderground v.1.13,2013-06-19 04:56:00,
2013-06-19 01:02:00,62.3,61.4,29.90,SW,230,0.0,0.0,97,0.00,,,0.00,Wunderground v.1.13,2013-06-19 05:02:00,
2013-06-19 01:07:00,62.3,61.4,29.90,SW,230,0.0,0.0,97,0.00,,,0.00,Wunderground v.1.13,2013-06-19 05:07:00,
2013-06-19 01:13:00,62.3,61.4,29.90,SW,230,0.0,0.0,97,0.00,,,0.00,Wunderground v.1.13,2013-06-19 05:13:00,
2013-06-19 01:19:00,62.1,61.2,29.90,SW,230,0.0,0.0,97,0.00,,,0.00,Wunderground v.1.13,2013-06-19 05:19:00,
2013-06-19 01:25:00,62.0,61.1,29.90,SW,230,0.0,0.0,97,0.00,,,0.00,Wunderground v.1.13,2013-06-19 05:25:00,
2013-06-19 01:30:00,61.9,61.0,29.90,SW,230,0.0,0.0,97,0.00,,,0.00,Wunderground v.1.13,2013-06-19 05:30:00,
2013-06-19 01:36:00,61.7,60.8,29.90,SW,230,0.0,0.0,97,0.00,,,0.00,Wunderground v.1.13,2013-06-19 05:36:00,
2013-06-19 01:42:00,61.6,60.7,29.90,SW,230,0.0,0.0,97,0.00,,,0.00,Wunderground v.1.13,2013-06-19 05:42:00,
2013-06-19 01:48:00,61.4,60.5,29.90,SW,230,0.0,0.0,97,0.00,,,0.00,Wunderground v.1.13,2013-06-19 05:48:00,
2013-06-19 01:54:00,61.4,60.5,29.90,SW,230,0.0,0.0,97,0.00,,,0.00,Wunderground v.1.13,2013-06-19 05:54:00,
2013-06-19 02:00:00,61.3,60.4,29.91,SW,230,0.0,0.0,97,0.00,,,0.00,Wunderground v.1.13,2013-06-19 06:00:00,
2013-06-19 02:05:00,61.4,60.5,29.90,SW,230,0.0,0.0,97,0.00,,,0.00,Wunderground v.1.13,2013-06-19 06:05:00,
2013-06-19 02:11:00,61.5,60.6,29.90,SW,230,0.0,0.0,97,0.00,,,0.00,Wunderground v.1.13,2013-06-19 06:11:00,
2013-06-19 02:16:00,61.6,60.7,29.91,SW,230,0.0,0.0,97,0.00,,,0.00,Wunderground v.1.13,2013-06-19 06:16:00,
2013-06-19 02:22:00,61.5,60.6,29.91,SW,230,0.0,0.0,97,0.00,,,0.00,Wunderground v.1.13,2013-06-19 06:22:00,
2013-06-19 02:28:00,61.7,60.8,29.91,SW,230,0.0,0.0,97,0.00,,,0.00,Wunderground v.1.13,2013-06-19 06:28:00,
2013-06-19 02:34:00,61.6,60.7,29.91,SW,230,0.0,0.0,97,0.00,,,0.00,Wunderground v.1.13,2013-06-19 06:34:00,
2013-06-19 02:40:00,61.7,60.8,29.91,SW,230,0.0,0.0,97,0.00,,,0.00,Wunderground v.1.13,2013-06-19 06:40:00,
2013-06-19 02:45:00,61.7,60.8,29.91,SW,230,0.0,0.0,97,0.00,,,0.00,Wunderground v.1.13,2013-06-19 06:45:00,
2013-06-19 02:51:00,61.8,60.9,29.92,SW,230,0.0,0.0,97,0.00,,,0.00,Wunderground v.1.13,2013-06-19 06:51:00,
2013-06-19 02:57:00,61.8,60.9,29.92,SW,230,0.0,0.0,97,0.00,,,0.00,Wunderground v.1.13,2013-06-19 06:57:00,
2013-06-19 03:02:00,61.8,60.9,29.92,SW,230,0.0,0.0,97,0.00,,,0.00,Wunderground v.1.13,2013-06-19 07:02:00,
2013-06-19 03:07:00,61.8,60.9,29.92,SW,230,0.0,0.0,97,0.00,,,0.00,Wunderground v.1.13,2013-06-19 07:07:00,
2013-06-19 03:12:00,61.7,60.8,29.92,SW,230,0.0,0.0,97,0.00,,,0.00,Wunderground v.1.13,2013-06-19 07:12:00,
2013-06-19 03:17:00,61.6,60.7,29.92,SW,230,0.0,0.0,97,0.00,,,0.00,Wunderground v.1.13,2013-06-19 07:17:00,
2013-06-19 03:22:00,61.6,60.7,29.92,SW,230,0.0,0.0,97,0.00,,,0.00,Wunderground v.1.13,2013-06-19 07:22:00,
2013-06-19 03:27:00,61.5,60.6,29.92,SW,230,0.0,0.0,97,0.00,,,0.00,Wunderground v.1.13,2013-06-19 07:27:00,
2013-06-19 03:32:00,61.5,60.6,29.91,SW,230,0.0,0.0,97,0.00,,,0.00,Wunderground v.1.13,2013-06-19 07:32:00,
2013-06-19 03:37:00,61.4,60.5,29.92,SW,230,0.0,0.0,97,0.00,,,0.00,Wunderground v.1.13,2013-06-19 07:37:00,
2013-06-19 03:42:00,61.4,60.5,29.92,SW,230,0.0,0.0,97,0.00,,,0.00,Wunderground v.1.13,2013-06-19 07:42:00,
2013-06-19 03:47:00,61.3,60.4,29.91,SW,230,0.0,0.0,97,0.00,,,0.00,Wunderground v.1.13,2013-06-19 07:47:00,
2013-06-19 03:52:00,61.2,60.3,29.91,SW,230,0.0,0.0,97,0.00,,,0.00,Wunderground v.1.13,2013-06-19 07:52:00,
2013-06-19 03:57:00,61.1,60.2,29.91,SW,230,0.0,0.0,97,0.00,,,0.00,Wunderground v.1.13,2013-06-19 07:57:00,
2013-06-19 04:02:00,61.0,60.1,29.91,SW,230,0.0,0.0,97,0.00,,,0.00,Wunderground v.1.13,2013-06-19 08:02:00,
2013-06-19 04:07:00,60.9,60.0,29.92,SW,230,0.0,0.0,97,0.00,,,0.00,Wunderground v.1.13,2013-06-19 08:07:00,
2013-06-19 04:12:00,60.8,59.9,29.92,SW,230,0.0,0.0,97,0.00,,,0.00,Wunderground v.1.13,2013-06-19 08:12:00,
2013-06-19 04:17:00,60.7,59.8,29.92,SW,230,0.0,0.0,97,0.00,,,0.00,Wunderground v.1.13,2013-06-19 08:17:00,
2013-06-19 04:22:00,60.6,59.7,29.92,SW,230,0.0,0.0,97,0.00,,,0.00,Wunderground v.1.13,2013-06-19 08:22:00,
2013-06-19 04:27:00,60.5,59.6,29.92,SW,230,0.0,0.0,97,0.00,,,0.00,Wunderground v.1.13,2013-06-19 08:27:00,
2013-06-19 04:32:00,60.4,59.5,29.92,SW,230,0.0,0.0,97,0.00,,,0.00,Wunderground v.1.13,2013-06-19 08:32:00,
2013-06-19 04:37:00,60.2,59.3,29.92,SW,230,3.0,3.0,97,0.00,,,0.00,Wunderground v.1.13,2013-06-19 08:37:00,
2013-06-19 04:42:00,60.0,59.1,29.93,SW,230,0.0,4.0,97,0.00,,,0.00,Wunderground v.1.13,2013-06-19 08:42:00,
2013-06-19 04:47:00,59.8,58.9,29.93,SW,230,1.0,3.0,97,0.00,,,0.00,Wunderground v.1.13,2013-06-19 08:47:00,
2013-06-19 04:52:00,59.5,58.6,29.93,NW,319,2.0,8.0,97,0.00,,,0.00,Wunderground v.1.13,2013-06-19 08:52:00,
2013-06-19 04:57:00,59.4,58.5,29.93,NNW,338,0.0,4.0,97,0.00,,,0.00,Wunderground v.1.13,2013-06-19 08:57:00,
2013-06-19 05:02:00,59.3,58.4,29.93,NNW,338,0.0,3.0,97,0.00,,,0.00,Wunderground v.1.13,2013-06-19 09:02:00,
2013-06-19 05:07:00,59.2,58.1,29.93,NNW,345,0.0,3.0,96,0.00,,,0.00,Wunderground v.1.13,2013-06-19 09:07:00,
2013-06-19 05:12:00,59.1,58.0,29.93,NNW,345,0.0,5.0,96,0.00,,,0.00,Wunderground v.1.13,2013-06-19 09:12:00,
2013-06-19 05:17:00,59.1,58.0,29.94,NNW,345,2.0,4.0,96,0.00,,,0.00,Wunderground v.1.13,2013-06-19 09:17:00,
2013-06-19 05:22:00,59.0,57.9,29.94,NNW,345,0.0,2.0,96,0.00,,,0.00,Wunderground v.1.13,2013-06-19 09:22:00,
2013-06-19 05:27:00,59.0,57.9,29.94,NNW,345,0.0,3.0,96,0.00,,,0.00,Wunderground v.1.13,2013-06-19 09:27:00,
2013-06-19 05:32:00,58.9,57.8,29.94,NNW,346,4.0,4.0,96,0.00,,,0.00,Wunderground v.1.13,2013-06-19 09:32:00,
2013-06-19 05:37:00,58.8,57.7,29.94,NNW,347,0.0,2.0,96,0.00,,,0.00,Wunderground v.1.13,2013-06-19 09:37:00,
2013-06-19 05:42:00,58.7,57.6,29.95,NNW,348,3.0,5.0,96,0.00,,,0.00,Wunderground v.1.13,2013-06-19 09:42:00,
2013-06-19 05:47:00,58.5,57.4,29.95,NNW,348,0.0,2.0,96,0.00,,,0.00,Wunderground v.1.13,2013-06-19 09:47:00,
2013-06-19 05:52:00,58.4,57.0,29.95,NNW,348,0.0,4.0,95,0.00,,,0.00,Wunderground v.1.13,2013-06-19 09:52:00,
2013-06-19 05:57:00,58.3,56.9,29.95,NNW,348,1.0,3.0,95,0.00,,,0.00,Wunderground v.1.13,2013-06-19 09:57:00,
2013-06-19 06:02:00,58.2,56.8,29.96,NNW,348,3.0,4.0,95,0.00,,,0.00,Wunderground v.1.13,2013-06-19 10:02:00,
2013-06-19 06:07:00,58.1,56.4,29.96,NNW,348,0.0,4.0,94,0.00,,,0.00,Wunderground v.1.13,2013-06-19 10:07:00,
2013-06-19 06:12:00,58.0,56.3,29.96,NNW,348,4.0,5.0,94,0.00,,,0.00,Wunderground v.1.13,2013-06-19 10:12:00,
2013-06-19 06:17:00,57.8,56.1,29.96,NNW,348,0.0,2.0,94,0.00,,,0.00,Wunderground v.1.13,2013-06-19 10:17:00,
2013-06-19 06:22:00,57.7,55.7,29.97,NNW,348,0.0,3.0,93,0.00,,,0.00,Wunderground v.1.13,2013-06-19 10:22:00,
2013-06-19 06:27:00,57.6,55.6,29.97,NNW,348,0.0,4.0,93,0.00,,,0.00,Wunderground v.1.13,2013-06-19 10:27:00,
2013-06-19 06:32:00,57.6,55.6,29.97,NNW,348,0.0,1.0,93,0.00,,,0.00,Wunderground v.1.13,2013-06-19 10:32:00,
2013-06-19 06:37:00,57.5,55.2,29.97,NNW,348,0.0,2.0,92,0.00,,,0.00,Wunderground v.1.13,2013-06-19 10:37:00,
2013-06-19 06:42:00,57.5,55.2,29.97,NNW,348,1.0,3.0,92,0.00,,,0.00,Wunderground v.1.13,2013-06-19 10:42:00,
2013-06-19 06:47:00,57.4,54.8,29.98,NNW,348,0.0,1.0,91,0.00,,,0.00,Wunderground v.1.13,2013-06-19 10:47:00,
2013-06-19 06:52:00,57.3,54.7,29.98,NNW,348,0.0,2.0,91,0.00,,,0.00,Wunderground v.1.13,2013-06-19 10:52:00,
2013-06-19 06:57:00,57.3,54.7,29.98,NNW,348,0.0,4.0,91,0.00,,,0.00,Wunderground v.1.13,2013-06-19 10:57:00,
2013-06-19 07:02:00,57.3,54.4,29.98,NNW,348,0.0,3.0,90,0.00,,,0.00,Wunderground v.1.13,2013-06-19 11:02:00,
2013-06-19 07:07:00,57.4,54.5,29.98,NNW,348,1.0,3.0,90,0.00,,,0.00,Wunderground v.1.13,2013-06-19 11:07:00,
2013-06-19 07:12:00,57.6,54.4,29.98,NNW,348,0.0,4.0,89,0.00,,,0.00,Wunderground v.1.13,2013-06-19 11:12:00,
2013-06-19 07:17:00,57.7,54.2,29.99,NNW,348,0.0,1.0,88,0.00,,,0.00,Wunderground v.1.13,2013-06-19 11:17:00,
2013-06-19 07:23:00,57.9,54.1,29.98,NNW,348,1.0,2.0,87,0.00,,,0.00,Wunderground v.1.13,2013-06-19 11:23:00,
2013-06-19 07:28:00,58.3,54.1,29.99,NNW,348,1.0,2.0,86,0.00,,,0.00,Wunderground v.1.13,2013-06-19 11:28:00,
2013-06-19 07:33:00,58.6,54.1,29.99,NNW,348,0.0,4.0,85,0.00,,,0.00,Wunderground v.1.13,2013-06-19 11:33:00,
2013-06-19 07:38:00,59.0,54.2,29.99,NNW,348,0.0,2.0,84,0.00,,,0.00,Wunderground v.1.13,2013-06-19 11:38:00,
2013-06-19 07:43:00,59.5,54.3,29.99,NNW,348,0.0,3.0,83,0.00,,,0.00,Wunderground v.1.13,2013-06-19 11:43:00,
2013-06-19 07:48:00,59.6,54.1,30.00,NNW,348,0.0,3.0,82,0.00,,,0.00,Wunderground v.1.13,2013-06-19 11:48:00,
2013-06-19 07:53:00,59.9,54.4,30.00,NNW,348,2.0,4.0,82,0.00,,,0.00,Wunderground v.1.13,2013-06-19 11:53:00,
2013-06-19 07:58:00,60.3,54.8,30.00,NNW,348,0.0,2.0,82,0.00,,,0.00,Wunderground v.1.13,2013-06-19 11:58:00,
2013-06-19 08:03:00,60.8,54.9,30.00,NNW,348,0.0,2.0,81,0.00,,,0.00,Wunderground v.1.13,2013-06-19 12:03:00,
2013-06-19 08:08:00,61.2,55.0,30.00,NNW,348,0.0,2.0,80,0.00,,,0.00,Wunderground v.1.13,2013-06-19 12:08:00,
2013-06-19 08:13:00,61.8,55.6,30.01,NNW,348,1.0,1.0,80,0.00,,,0.00,Wunderground v.1.13,2013-06-19 12:13:00,
2013-06-19 08:18:00,62.2,55.3,30.01,NNW,348,1.0,3.0,78,0.00,,,0.00,Wunderground v.1.13,2013-06-19 12:18:00,
2013-06-19 08:23:00,62.7,55.4,30.01,NNW,348,0.0,3.0,77,0.00,,,0.00,Wunderground v.1.13,2013-06-19 12:23:00,
2013-06-19 08:28:00,63.1,55.8,30.01,NNW,348,0.0,1.0,77,0.00,,,0.00,Wunderground v.1.13,2013-06-19 12:28:00,
2013-06-19 08:33:00,63.4,55.3,30.01,NNW,348,2.0,4.0,75,0.00,,,0.00,Wunderground v.1.13,2013-06-19 12:33:00,
2013-06-19 08:38:00,63.6,55.5,30.01,NNW,348,0.0,3.0,75,0.00,,,0.00,Wunderground v.1.13,2013-06-19 12:38:00,
2013-06-19 08:43:00,63.9,55.4,30.02,NNW,348,0.0,3.0,74,0.00,,,0.00,Wunderground v.1.13,2013-06-19 12:43:00,
2013-06-19 08:48:00,64.1,55.3,30.01,NNW,348,1.0,3.0,73,0.00,,,0.00,Wunderground v.1.13,2013-06-19 12:48:00,
2013-06-19 08:53:00,64.6,56.5,30.02,NNW,348,4.0,4.0,75,0.00,,,0.00,Wunderground v.1.13,2013-06-19 12:53:00,
2013-06-19 08:58:00,65.1,56.2,30.02,NNW,348,1.0,3.0,73,0.00,,,0.00,Wunderground v.1.13,2013-06-19 12:58:00,
2013-06-19 09:03:00,65.4,56.1,30.02,NNW,348,2.0,5.0,72,0.00,,,0.00,Wunderground v.1.13,2013-06-19 13:03:00,
2013-06-19 09:08:00,65.6,56.7,30.02,NNW,348,1.0,5.0,73,0.00,,,0.00,Wunderground v.1.13,2013-06-19 13:08:00,
2013-06-19 09:13:00,65.9,55.8,30.02,NNW,348,3.0,4.0,70,0.00,,,0.00,Wunderground v.1.13,2013-06-19 13:13:00,
2013-06-19 09:18:00,66.1,56.4,30.02,NNW,348,0.0,2.0,71,0.00,,,0.00,Wunderground v.1.13,2013-06-19 13:18:00,
2013-06-19 09:23:00,66.4,56.3,30.02,NNW,348,3.0,4.0,70,0.00,,,0.00,Wunderground v.1.13,2013-06-19 13:23:00,
2013-06-19 09:28:00,66.7,57.0,30.02,NNW,348,0.0,1.0,71,0.00,,,0.00,Wunderground v.1.13,2013-06-19 13:28:00,
2013-06-19 09:33:00,66.8,56.3,30.03,NNW,348,3.0,3.0,69,0.00,,,0.00,Wunderground v.1.13,2013-06-19 13:33:00,
2013-06-19 09:38:00,67.2,57.1,30.03,NNW,348,0.0,3.0,70,0.00,,,0.00,Wunderground v.1.13,2013-06-19 13:38:00,
2013-06-19 09:43:00,67.5,56.6,30.03,NNW,348,5.0,5.0,68,0.00,,,0.00,Wunderground v.1.13,2013-06-19 13:43:00,
2013-06-19 09:48:00,67.6,56.7,30.03,NNW,348,0.0,4.0,68,0.00,,,0.00,Wunderground v.1.13,2013-06-19 13:48:00,
2013-06-19 09:53:00,67.5,57.4,30.02,NNW,346,0.0,4.0,70,0.00,,,0.00,Wunderground v.1.13,2013-06-19 13:53:00,
2013-06-19 09:58:00,66.4,56.7,30.03,North,350,0.0,5.0,71,0.00,,,0.00,Wunderground v.1.13,2013-06-19 13:58:00,
2013-06-19 10:03:00,66.2,56.1,30.03,North,350,0.0,4.0,70,0.00,,,0.00,Wunderground v.1.13,2013-06-19 14:03:00,
2013-06-19 10:08:00,66.3,57.0,30.03,North,5,4.0,5.0,72,0.00,,,0.00,Wunderground v.1.13,2013-06-19 14:08:00,
2013-06-19 10:13:00,66.7,57.0,30.03,North,5,1.0,3.0,71,0.00,,,0.00,Wunderground v.1.13,2013-06-19 14:13:00,
2013-06-19 10:18:00,66.8,57.5,30.03,North,5,6.0,6.0,72,0.00,,,0.00,Wunderground v.1.13,2013-06-19 14:18:00,
2013-06-19 10:23:00,66.9,56.8,30.03,North,5,1.0,6.0,70,0.00,,,0.00,Wunderground v.1.13,2013-06-19 14:23:00,
2013-06-19 10:28:00,67.0,56.5,30.03,NNE,13,0.0,7.0,69,0.00,,,0.00,Wunderground v.1.13,2013-06-19 14:28:00,
2013-06-19 10:33:00,67.4,57.3,30.03,NNE,28,4.0,5.0,70,0.00,,,0.00,Wunderground v.1.13,2013-06-19 14:33:00,
2013-06-19 10:38:00,67.8,56.9,30.03,NNE,30,4.0,5.0,68,0.00,,,0.00,Wunderground v.1.13,2013-06-19 14:38:00,
2013-06-19 10:43:00,67.6,57.9,30.03,NNE,19,4.0,6.0,71,0.00,,,0.00,Wunderground v.1.13,2013-06-19 14:43:00,
2013-06-19 10:48:00,67.8,57.7,30.03,NNE,19,3.0,4.0,70,0.00,,,0.00,Wunderground v.1.13,2013-06-19 14:48:00,
2013-06-19 10:53:00,68.6,57.2,30.03,NNE,19,1.0,4.0,67,0.00,,,0.00,Wunderground v.1.13,2013-06-19 14:53:00,
2013-06-19 10:58:00,68.7,56.9,30.03,NNE,19,2.0,5.0,66,0.00,,,0.00,Wunderground v.1.13,2013-06-19 14:58:00,
2013-06-19 11:03:00,68.1,57.1,30.03,NNE,19,0.0,3.0,68,0.00,,,0.00,Wunderground v.1.13,2013-06-19 15:03:00,
2013-06-19 11:08:00,69.4,58.4,30.03,NNE,19,0.0,5.0,68,0.00,,,0.00,Wunderground v.1.13,2013-06-19 15:08:00,
2013-06-19 11:13:00,69.9,57.6,30.04,NNE,22,5.0,5.0,65,0.00,,,0.00,Wunderground v.1.13,2013-06-19 15:13:00,
2013-06-19 11:18:00,69.8,57.5,30.04,NNE,22,2.0,4.0,65,0.00,,,0.00,Wunderground v.1.13,2013-06-19 15:18:00,
2013-06-19 11:23:00,70.0,57.3,30.03,NNW,344,1.0,9.0,64,0.00,,,0.00,Wunderground v.1.13,2013-06-19 15:23:00,
2013-06-19 11:28:00,70.3,56.7,30.04,ENE,62,0.0,7.0,62,0.00,,,0.00,Wunderground v.1.13,2013-06-19 15:28:00,
2013-06-19 11:33:00,69.9,57.6,30.04,ENE,58,3.0,4.0,65,0.00,,,0.00,Wunderground v.1.13,2013-06-19 15:33:00,
2013-06-19 11:38:00,70.5,57.7,30.04,NNE,16,5.0,7.0,64,0.00,,,0.00,Wunderground v.1.13,2013-06-19 15:38:00,
2013-06-19 11:43:00,70.3,58.0,30.04,NNE,28,0.0,7.0,65,0.00,,,0.00,Wunderground v.1.13,2013-06-19 15:43:00,
2013-06-19 11:48:00,70.7,57.9,30.04,NNE,26,2.0,6.0,64,0.00,,,0.00,Wunderground v.1.13,2013-06-19 15:48:00,
2013-06-19 11:53:00,71.0,56.9,30.04,NNE,22,0.0,7.0,61,0.00,,,0.00,Wunderground v.1.13,2013-06-19 15:53:00,
2013-06-19 11:58:00,70.8,57.1,30.04,NNW,348,0.0,9.0,62,0.00,,,0.00,Wunderground v.1.13,2013-06-19 15:58:00,
2013-06-19 12:03:00,71.4,58.6,30.04,NNW,343,2.0,6.0,64,0.00,,,0.00,Wunderground v.1.13,2013-06-19 16:03:00,
2013-06-19 12:08:00,71.5,57.3,30.05,NNW,347,0.0,5.0,61,0.00,,,0.00,Wunderground v.1.13,2013-06-19 16:08:00,
2013-06-19 12:13:00,71.3,58.9,30.04,NNW,346,1.0,3.0,65,0.00,,,0.00,Wunderground v.1.13,2013-06-19 16:13:00,
2013-06-19 12:18:00,72.0,57.8,30.04,North,350,3.0,6.0,61,0.00,,,0.00,Wunderground v.1.13,2013-06-19 16:18:00,
2013-06-19 12:23:00,71.9,57.3,30.04,North,360,1.0,7.0,60,0.00,,,0.00,Wunderground v.1.13,2013-06-19 16:23:00,
2013-06-19 12:28:00,71.7,56.1,30.04,North,11,0.0,5.0,58,0.00,,,0.00,Wunderground v.1.13,2013-06-19 16:28:00,
2013-06-19 12:33:00,71.7,56.6,30.04,North,5,7.0,8.0,59,0.00,,,0.00,Wunderground v.1.13,2013-06-19 16:33:00,
2013-06-19 12:38:00,72.0,56.9,30.04,NNE,28,0.0,6.0,59,0.00,,,0.00,Wunderground v.1.13,2013-06-19 16:38:00,
2013-06-19 12:43:00,72.6,56.5,30.04,NE,44,4.0,7.0,57,0.00,,,0.00,Wunderground v.1.13,2013-06-19 16:43:00,
2013-06-19 12:48:00,72.2,56.1,30.04,NE,35,3.0,6.0,57,0.00,,,0.00,Wunderground v.1.13,2013-06-19 16:48:00,
2013-06-19 12:53:00,72.8,56.2,30.04,NNE,14,0.0,8.0,56,0.00,,,0.00,Wunderground v.1.13,2013-06-19 16:53:00,
2013-06-19 12:59:00,72.6,55.0,30.04,NNE,29,1.0,3.0,54,0.00,,,0.00,Wunderground v.1.13,2013-06-19 16:59:00,
2013-06-19 13:04:00,73.4,55.7,30.04,NNE,25,1.0,9.0,54,0.00,,,0.00,Wunderground v.1.13,2013-06-19 17:04:00,
2013-06-19 13:09:00,73.1,57.0,30.04,NE,34,1.0,5.0,57,0.00,,,0.00,Wunderground v.1.13,2013-06-19 17:09:00,
2013-06-19 13:14:00,73.8,56.1,30.04,NNE,17,5.0,7.0,54,0.00,,,0.00,Wunderground v.1.13,2013-06-19 17:14:00,
2013-06-19 13:19:00,73.4,55.7,30.04,NNE,15,2.0,9.0,54,0.00,,,0.00,Wunderground v.1.13,2013-06-19 17:19:00,
2013-06-19 13:24:00,72.7,53.0,30.04,East,81,0.0,13.0,50,0.00,,,0.00,Wunderground v.1.13,2013-06-19 17:24:00,
2013-06-19 13:29:00,72.8,53.6,30.04,North,355,2.0,11.0,51,0.00,,,0.00,Wunderground v.1.13,2013-06-19 17:29:00,
2013-06-19 13:34:00,73.8,54.0,30.04,North,9,4.0,7.0,50,0.00,,,0.00,Wunderground v.1.13,2013-06-19 17:34:00,
2013-06-19 13:39:00,73.2,55.0,30.03,NE,52,4.0,8.0,53,0.00,,,0.00,Wunderground v.1.13,2013-06-19 17:39:00,
2013-06-19 13:44:00,73.4,53.6,30.03,NNE,13,7.0,7.0,50,0.00,,,0.00,Wunderground v.1.13,2013-06-19 17:44:00,
2013-06-19 13:49:00,73.2,54.5,30.03,NNW,342,5.0,13.0,52,0.00,,,0.00,Wunderground v.1.13,2013-06-19 17:49:00,
2013-06-19 13:54:00,72.8,53.6,30.03,NNW,344,1.0,8.0,51,0.00,,,0.00,Wunderground v.1.13,2013-06-19 17:54:00,
2013-06-19 13:59:00,73.9,55.7,30.03,NNW,346,2.0,4.0,53,0.00,,,0.00,Wunderground v.1.13,2013-06-19 17:59:00,
2013-06-19 14:04:00,73.9,54.6,30.03,NNW,344,0.0,6.0,51,0.00,,,0.00,Wunderground v.1.13,2013-06-19 18:04:00,
2013-06-19 14:09:00,74.0,53.6,30.03,NE,38,1.0,5.0,49,0.00,,,0.00,Wunderground v.1.13,2013-06-19 18:09:00,
2013-06-19 14:14:00,74.4,53.4,30.03,North,5,0.0,7.0,48,0.00,,,0.00,Wunderground v.1.13,2013-06-19 18:14:00,
2013-06-19 14:19:00,73.7,53.9,30.03,North,5,2.0,5.0,50,0.00,,,0.00,Wunderground v.1.13,2013-06-19 18:19:00,
2013-06-19 14:24:00,73.7,54.4,30.03,NNW,339,6.0,9.0,51,0.00,,,0.00,Wunderground v.1.13,2013-06-19 18:24:00,
2013-06-19 14:29:00,73.9,53.5,30.03,NNW,340,1.0,6.0,49,0.00,,,0.00,Wunderground v.1.13,2013-06-19 18:29:00,
2013-06-19 14:34:00,74.5,55.7,30.03,NNW,340,0.0,6.0,52,0.00,,,0.00,Wunderground v.1.13,2013-06-19 18:34:00,
2013-06-19 14:39:00,74.6,54.7,30.03,NNW,342,0.0,7.0,50,0.00,,,0.00,Wunderground v.1.13,2013-06-19 18:39:00,
2013-06-19 14:44:00,75.2,55.8,30.03,NNW,342,0.0,2.0,51,0.00,,,0.00,Wunderground v.1.13,2013-06-19 18:44:00,
2013-06-19 14:49:00,75.3,54.3,30.03,North,351,5.0,8.0,48,0.00,,,0.00,Wunderground v.1.13,2013-06-19 18:49:00,
2013-06-19 14:54:00,75.2,54.2,30.03,NNE,19,4.0,8.0,48,0.00,,,0.00,Wunderground v.1.13,2013-06-19 18:54:00,
2013-06-19 14:59:00,74.6,51.2,30.03,NNE,19,1.0,4.0,44,0.00,,,0.00,Wunderground v.1.13,2013-06-19 18:59:00,
2013-06-19 15:04:00,74.6,51.2,30.03,NNE,17,2.0,5.0,44,0.00,,,0.00,Wunderground v.1.13,2013-06-19 19:04:00,
2013-06-19 15:09:00,74.6,52.4,30.03,North,9,1.0,7.0,46,0.00,,,0.00,Wunderground v.1.13,2013-06-19 19:09:00,
2013-06-19 15:14:00,75.2,52.4,30.03,North,9,0.0,3.0,45,0.00,,,0.00,Wunderground v.1.13,2013-06-19 19:14:00,
2013-06-19 15:19:00,74.8,52.0,30.03,North,5,0.0,4.0,45,0.00,,,0.00,Wunderground v.1.13,2013-06-19 19:19:00,
2013-06-19 15:24:00,74.9,53.3,30.03,North,5,0.0,1.0,47,0.00,,,0.00,Wunderground v.1.13,2013-06-19 19:24:00,
2013-06-19 15:29:00,75.3,52.5,30.03,North,10,4.0,5.0,45,0.00,,,0.00,Wunderground v.1.13,2013-06-19 19:29:00,
2013-06-19 15:34:00,75.5,53.3,30.03,North,5,2.0,6.0,46,0.00,,,0.00,Wunderground v.1.13,2013-06-19 19:34:00,
2013-06-19 15:39:00,76.1,53.2,30.03,North,5,0.0,3.0,45,0.00,,,0.00,Wunderground v.1.13,2013-06-19 19:39:00,
2013-06-19 15:44:00,75.9,51.8,30.03,North,5,1.0,3.0,43,0.00,,,0.00,Wunderground v.1.13,2013-06-19 19:44:00,
2013-06-19 15:49:00,75.8,52.3,30.03,North,5,0.0,7.0,44,0.00,,,0.00,Wunderground v.1.13,2013-06-19 19:49:00,
2013-06-19 15:54:00,76.1,51.3,30.03,North,5,0.0,5.0,42,0.00,,,0.00,Wunderground v.1.13,2013-06-19 19:54:00,
2013-06-19 15:59:00,76.0,52.5,30.03,North,5,0.0,4.0,44,0.00,,,0.00,Wunderground v.1.13,2013-06-19 19:59:00,
2013-06-19 16:04:00,76.4,52.9,30.03,North,351,0.0,7.0,44,0.00,,,0.00,Wunderground v.1.13,2013-06-19 20:04:00,
2013-06-19 16:09:00,75.8,52.3,30.03,NNW,337,2.0,7.0,44,0.00,,,0.00,Wunderground v.1.13,2013-06-19 20:09:00,
2013-06-19 16:14:00,75.6,52.8,30.03,NNE,20,2.0,9.0,45,0.00,,,0.00,Wunderground v.1.13,2013-06-19 20:14:00,
2013-06-19 16:19:00,75.9,54.2,30.02,NNE,20,0.0,2.0,47,0.00,,,0.00,Wunderground v.1.13,2013-06-19 20:19:00,
2013-06-19 16:24:00,75.9,53.6,30.02,NNE,19,0.0,3.0,46,0.00,,,0.00,Wunderground v.1.13,2013-06-19 20:24:00,
2013-06-19 16:29:00,75.9,55.4,30.02,NNW,342,0.0,4.0,49,0.00,,,0.00,Wunderground v.1.13,2013-06-19 20:29:00,
2013-06-19 16:34:00,76.2,55.6,30.02,NNW,342,0.0,1.0,49,0.00,,,0.00,Wunderground v.1.13,2013-06-19 20:34:00,
2013-06-19 16:39:00,76.3,52.8,30.02,NNW,342,1.0,3.0,44,0.00,,,0.00,Wunderground v.1.13,2013-06-19 20:39:00,
2013-06-19 16:44:00,76.1,53.8,30.02,NNW,342,0.0,1.0,46,0.00,,,0.00,Wunderground v.1.13,2013-06-19 20:44:00,
2013-06-19 16:49:00,76.1,54.4,30.02,NNE,23,4.0,8.0,47,0.00,,,0.00,Wunderground v.1.13,2013-06-19 20:49:00,
2013-06-19 16:54:00,75.8,54.1,30.02,NNE,23,0.0,6.0,47,0.00,,,0.00,Wunderground v.1.13,2013-06-19 20:54:00,
2013-06-19 16:59:00,75.7,51.6,30.02,NNE,23,0.0,4.0,43,0.00,,,0.00,Wunderground v.1.13,2013-06-19 20:59:00,
2013-06-19 17:04:00,75.9,54.2,30.02,NNE,22,8.0,8.0,47,0.00,,,0.00,Wunderground v.1.13,2013-06-19 21:04:00,
2013-06-19 17:09:00,76.1,54.4,30.02,NNE,22,1.0,5.0,47,0.00,,,0.00,Wunderground v.1.13,2013-06-19 21:09:00,
2013-06-19 17:14:00,75.6,51.5,30.02,NNE,14,4.0,8.0,43,0.00,,,0.00,Wunderground v.1.13,2013-06-19 21:14:00,
2013-06-19 17:19:00,75.5,51.4,30.01,NNE,14,0.0,6.0,43,0.00,,,0.00,Wunderground v.1.13,2013-06-19 21:19:00,
2013-06-19 17:24:00,75.8,53.5,30.01,NNE,14,2.0,2.0,46,0.00,,,0.00,Wunderground v.1.13,2013-06-19 21:24:00,
2013-06-19 17:29:00,75.7,54.0,30.02,NNE,14,0.0,5.0,47,0.00,,,0.00,Wunderground v.1.13,2013-06-19 21:29:00,
2013-06-19 17:34:00,75.9,55.4,30.02,NE,34,0.0,7.0,49,0.00,,,0.00,Wunderground v.1.13,2013-06-19 21:34:00,
2013-06-19 17:39:00,75.3,51.9,30.02,NE,34,5.0,5.0,44,0.00,,,0.00,Wunderground v.1.13,2013-06-19 21:39:00,
2013-06-19 17:44:00,75.2,52.4,30.02,NNE,30,1.0,7.0,45,0.00,,,0.00,Wunderground v.1.13,2013-06-19 21:44:00,
2013-06-19 17:49:00,75.0,51.6,30.02,NNE,28,3.0,6.0,44,0.00,,,0.00,Wunderground v.1.13,2013-06-19 21:49:00,
2013-06-19 17:54:00,74.8,51.4,30.02,NNE,27,0.0,5.0,44,0.00,,,0.00,Wunderground v.1.13,2013-06-19 21:54:00,
2013-06-19 17:59:00,75.0,52.8,30.02,NNE,27,1.0,3.0,46,0.00,,,0.00,Wunderground v.1.13,2013-06-19 21:59:00,
2013-06-19 18:04:00,74.9,54.4,30.02,NNE,27,0.0,4.0,49,0.00,,,0.00,Wunderground v.1.13,2013-06-19 22:04:00,
2013-06-19 18:10:00,74.6,53.0,30.02,NNE,27,0.0,2.0,47,0.00,,,0.00,Wunderground v.1.13,2013-06-19 22:10:00,
2013-06-19 18:15:00,74.4,54.0,30.02,NNE,27,0.0,2.0,49,0.00,,,0.00,Wunderground v.1.13,2013-06-19 22:15:00,
2013-06-19 18:20:00,74.7,51.9,30.02,NNE,27,0.0,0.0,45,0.00,,,0.00,Wunderground v.1.13,2013-06-19 22:20:00,
2013-06-19 18:25:00,74.8,53.2,30.02,NNE,27,0.0,1.0,47,0.00,,,0.00,Wunderground v.1.13,2013-06-19 22:25:00,
2013-06-19 18:30:00,74.5,52.4,30.02,NNE,27,0.0,1.0,46,0.00,,,0.00,Wunderground v.1.13,2013-06-19 22:30:00,
2013-06-19 18:35:00,74.6,52.4,30.02,NNE,27,1.0,1.0,46,0.00,,,0.00,Wunderground v.1.13,2013-06-19 22:35:00,
2013-06-19 18:40:00,74.3,52.8,30.02,NNE,27,0.0,1.0,47,0.00,,,0.00,Wunderground v.1.13,2013-06-19 22:40:00,
2013-06-19 18:45:00,74.2,50.9,30.02,NNE,27,0.0,0.0,44,0.00,,,0.00,Wunderground v.1.13,2013-06-19 22:45:00,
2013-06-19 18:50:00,73.5,51.4,30.02,NNE,27,1.0,2.0,46,0.00,,,0.00,Wunderground v.1.13,2013-06-19 22:50:00,
2013-06-19 18:55:00,73.0,54.3,30.02,NNE,27,0.0,0.0,52,0.00,,,0.00,Wunderground v.1.13,2013-06-19 22:55:00,
2013-06-19 19:00:00,72.9,54.8,30.02,NNE,27,0.0,0.0,53,0.00,,,0.00,Wunderground v.1.13,2013-06-19 23:00:00,
2013-06-19 19:05:00,72.2,55.6,30.02,NNE,27,0.0,0.0,56,0.00,,,0.00,Wunderground v.1.13,2013-06-19 23:05:00,
2013-06-19 19:10:00,72.0,53.4,30.03,NNE,27,0.0,0.0,52,0.00,,,0.00,Wunderground v.1.13,2013-06-19 23:10:00,
2013-06-19 19:15:00,71.5,55.5,30.03,NNE,27,0.0,0.0,57,0.00,,,0.00,Wunderground v.1.13,2013-06-19 23:15:00,
2013-06-19 19:20:00,71.1,55.1,30.03,NNE,27,0.0,0.0,57,0.00,,,0.00,Wunderground v.1.13,2013-06-19 23:20:00,
2013-06-19 19:25:00,70.4,54.9,30.03,NNE,27,0.0,0.0,58,0.00,,,0.00,Wunderground v.1.13,2013-06-19 23:25:00,
2013-06-19 19:30:00,69.7,56.5,30.03,NNE,27,0.0,0.0,63,0.00,,,0.00,Wunderground v.1.13,2013-06-19 23:30:00,
2013-06-19 19:35:00,68.9,58.7,30.03,NNE,27,0.0,0.0,70,0.00,,,0.00,Wunderground v.1.13,2013-06-19 23:35:00,
2013-06-19 19:40:00,68.3,57.7,30.04,NNE,27,0.0,0.0,69,0.00,,,0.00,Wunderground v.1.13,2013-06-19 23:40:00,
2013-06-19 19:45:00,67.6,57.9,30.04,NNE,27,0.0,0.0,71,0.00,,,0.00,Wunderground v.1.13,2013-06-19 23:45:00,
2013-06-19 19:50:00,67.1,58.9,30.04,NNE,27,0.0,0.0,75,0.00,,,0.00,Wunderground v.1.13,2013-06-19 23:50:00,
2013-06-19 19:55:00,66.5,58.7,30.04,NNE,27,0.0,0.0,76,0.00,,,0.00,Wunderground v.1.13,2013-06-19 23:55:00,
2013-06-19 20:00:00,66.1,59.4,30.04,NNE,27,0.0,0.0,79,0.00,,,0.00,Wunderground v.1.13,2013-06-20 00:00:00,
2013-06-19 20:05:00,65.5,58.8,30.04,NNE,27,0.0,0.0,79,0.00,,,0.00,Wunderground v.1.13,2013-06-20 00:05:00,
2013-06-19 20:10:00,65.0,58.3,30.04,NNE,27,0.0,0.0,79,0.00,,,0.00,Wunderground v.1.13,2013-06-20 00:10:00,
2013-06-19 20:15:00,64.6,58.3,30.05,NNE,27,0.0,0.0,80,0.00,,,0.00,Wunderground v.1.13,2013-06-20 00:15:00,
2013-06-19 20:20:00,64.2,57.9,30.05,NNE,27,0.0,0.0,80,0.00,,,0.00,Wunderground v.1.13,2013-06-20 00:20:00,
2013-06-19 20:25:00,63.8,57.2,30.05,NNE,27,0.0,0.0,79,0.00,,,0.00,Wunderground v.1.13,2013-06-20 00:25:00,
2013-06-19 20:30:00,63.4,57.5,30.05,NNE,27,0.0,0.0,81,0.00,,,0.00,Wunderground v.1.13,2013-06-20 00:30:00,
2013-06-19 20:35:00,62.8,56.9,30.05,NNE,27,0.0,0.0,81,0.00,,,0.00,Wunderground v.1.13,2013-06-20 00:35:00,
2013-06-19 20:40:00,62.6,58.0,30.06,NNE,27,0.0,0.0,85,0.00,,,0.00,Wunderground v.1.13,2013-06-20 00:40:00,
2013-06-19 20:45:00,61.9,57.0,30.06,NNE,27,0.0,0.0,84,0.00,,,0.00,Wunderground v.1.13,2013-06-20 00:45:00,
2013-06-19 20:50:00,61.5,56.9,30.06,NNE,27,0.0,0.0,85,0.00,,,0.00,Wunderground v.1.13,2013-06-20 00:50:00,
2013-06-19 20:55:00,61.1,57.2,30.06,NNE,27,0.0,0.0,87,0.00,,,0.00,Wunderground v.1.13,2013-06-20 00:55:00,
2013-06-19 21:00:00,60.6,56.7,30.06,NNE,27,0.0,0.0,87,0.00,,,0.00,Wunderground v.1.13,2013-06-20 01:00:00,
2013-06-19 21:05:00,60.1,56.5,30.06,NNE,27,0.0,0.0,88,0.00,,,0.00,Wunderground v.1.13,2013-06-20 01:05:00,
2013-06-19 21:10:00,59.8,56.2,30.06,NNE,27,0.0,0.0,88,0.00,,,0.00,Wunderground v.1.13,2013-06-20 01:10:00,
2013-06-19 21:15:00,59.4,56.2,30.06,NNE,27,0.0,0.0,89,0.00,,,0.00,Wunderground v.1.13,2013-06-20 01:15:00,
2013-06-19 21:20:00,58.9,56.0,30.06,NNE,27,0.0,0.0,90,0.00,,,0.00,Wunderground v.1.13,2013-06-20 01:20:00,
2013-06-19 21:25:00,58.6,55.7,30.06,NNE,27,0.0,0.0,90,0.00,,,0.00,Wunderground v.1.13,2013-06-20 01:25:00,
2013-06-19 21:30:00,58.3,55.4,30.07,NNE,27,0.0,0.0,90,0.00,,,0.00,Wunderground v.1.13,2013-06-20 01:30:00,
2013-06-19 21:35:00,58.0,55.4,30.07,NNE,27,0.0,0.0,91,0.00,,,0.00,Wunderground v.1.13,2013-06-20 01:35:00,
2013-06-19 21:40:00,57.9,55.3,30.07,NNE,27,0.0,0.0,91,0.00,,,0.00,Wunderground v.1.13,2013-06-20 01:40:00,
2013-06-19 21:45:00,58.0,55.4,30.07,NNE,27,0.0,0.0,91,0.00,,,0.00,Wunderground v.1.13,2013-06-20 01:45:00,
2013-06-19 21:50:00,58.3,56.0,30.08,NNE,27,0.0,0.0,92,0.00,,,0.00,Wunderground v.1.13,2013-06-20 01:50:00,
2013-06-19 21:55:00,58.2,55.9,30.08,NNE,27,0.0,0.0,92,0.00,,,0.00,Wunderground v.1.13,2013-06-20 01:55:00,
2013-06-19 22:00:00,57.7,55.1,30.08,NNE,27,0.0,0.0,91,0.00,,,0.00,Wunderground v.1.13,2013-06-20 02:00:00,
2013-06-19 22:06:00,57.3,55.0,30.08,NNE,27,0.0,0.0,92,0.00,,,0.00,Wunderground v.1.13,2013-06-20 02:06:00,
2013-06-19 22:11:00,57.2,54.9,30.08,NNE,27,0.0,0.0,92,0.00,,,0.00,Wunderground v.1.13,2013-06-20 02:11:00,
2013-06-19 22:16:00,56.8,54.5,30.09,NNE,27,0.0,0.0,92,0.00,,,0.00,Wunderground v.1.13,2013-06-20 02:16:00,
2013-06-19 22:21:00,56.6,54.6,30.09,NNE,27,0.0,0.0,93,0.00,,,0.00,Wunderground v.1.13,2013-06-20 02:21:00,
2013-06-19 22:27:00,56.2,54.2,30.09,NNE,27,0.0,0.0,93,0.00,,,0.00,Wunderground v.1.13,2013-06-20 02:27:00,
2013-06-19 22:32:00,56.2,54.5,30.09,NNE,27,0.0,0.0,94,0.00,,,0.00,Wunderground v.1.13,2013-06-20 02:32:00,
2013-06-19 22:37:00,55.9,54.2,30.09,NNE,27,0.0,0.0,94,0.00,,,0.00,Wunderground v.1.13,2013-06-20 02:37:00,
2013-06-19 22:42:00,55.6,53.6,30.09,NNE,27,0.0,0.0,93,0.00,,,0.00,Wunderground v.1.13,2013-06-20 02:42:00,
2013-06-19 22:47:00,55.2,53.2,30.09,NNE,27,0.0,0.0,93,0.00,,,0.00,Wunderground v.1.13,2013-06-20 02:47:00,
2013-06-19 22:52:00,55.0,53.3,30.10,NNE,27,0.0,0.0,94,0.00,,,0.00,Wunderground v.1.13,2013-06-20 02:52:00,
2013-06-19 22:57:00,54.8,53.1,30.10,NNE,27,0.0,0.0,94,0.00,,,0.00,Wunderground v.1.13,2013-06-20 02:57:00,
2013-06-19 23:02:00,54.7,53.0,30.10,NNE,27,0.0,0.0,94,0.00,,,0.00,Wunderground v.1.13,2013-06-20 03:02:00,
2013-06-19 23:07:00,54.6,52.9,30.10,NNE,27,0.0,0.0,94,0.00,,,0.00,Wunderground v.1.13,2013-06-20 03:07:00,
2013-06-19 23:12:00,54.4,52.7,30.11,NNE,27,0.0,0.0,94,0.00,,,0.00,Wunderground v.1.13,2013-06-20 03:12:00,
2013-06-19 23:17:00,54.3,52.9,30.11,NNE,27,0.0,0.0,95,0.00,,,0.00,Wunderground v.1.13,2013-06-20 03:17:00,
2013-06-19 23:22:00,54.4,53.0,30.11,NNE,27,0.0,0.0,95,0.00,,,0.00,Wunderground v.1.13,2013-06-20 03:22:00,
2013-06-19 23:27:00,54.2,52.5,30.11,NNE,27,0.0,0.0,94,0.00,,,0.00,Wunderground v.1.13,2013-06-20 03:27:00,
2013-06-19 23:32:00,54.1,52.4,30.11,NNE,27,0.0,0.0,94,0.00,,,0.00,Wunderground v.1.13,2013-06-20 03:32:00,
2013-06-19 23:37:00,54.2,52.8,30.11,NNE,27,0.0,0.0,95,0.00,,,0.00,Wunderground v.1.13,2013-06-20 03:37:00,
2013-06-19 23:42:00,54.4,53.0,30.11,NNE,27,0.0,0.0,95,0.00,,,0.00,Wunderground v.1.13,2013-06-20 03:42:00,
2013-06-19 23:47:00,54.2,52.8,30.11,NNE,27,0.0,0.0,95,0.00,,,0.00,Wunderground v.1.13,2013-06-20 03:47:00,
2013-06-19 23:52:00,54.2,52.8,30.11,NNE,27,0.0,0.0,95,0.00,,,0.00,Wunderground v.1.13,2013-06-20 03:52:00,
2013-06-19 23:57:00,54.3,52.9,30.11,NNE,27,0.0,0.0,95,0.00,,,0.00,Wunderground v.1.13,2013-06-20 03:57:00,